createdAt,value
2023-04-09T00:00:18.199Z,55.63
2023-04-09T00:02:45.453Z,56.20
2023-04-09T00:05:12.669Z,52.45
2023-04-09T00:07:39.722Z,54.22
2023-04-09T00:10:07.691Z,52.63
2023-04-09T00:12:34.727Z,51.70
2023-04-09T00:15:01.831Z,51.50
2023-04-09T00:17:28.869Z,50.88
2023-04-09T00:19:56.142Z,51.30
2023-04-09T00:22:23.307Z,49.33
2023-04-09T00:24:50.316Z,51.72
2023-04-09T00:27:17.417Z,50.15
2023-04-09T00:29:44.544Z,53.00
2023-04-09T00:32:11.562Z,49.28
2023-04-09T00:34:38.914Z,52.30
2023-04-09T00:37:06.577Z,50.22
2023-04-09T00:39:33.585Z,48.83
2023-04-09T00:42:04.784Z,47.33
2023-04-09T00:44:31.776Z,46.13
2023-04-09T00:47:02.813Z,44.33
2023-04-09T00:49:29.927Z,41.97
2023-04-09T00:51:57.065Z,43.45
2023-04-09T00:54:24.020Z,44.10
2023-04-09T00:56:51.457Z,42.30
2023-04-09T00:59:19.318Z,43.65
2023-04-09T01:01:46.361Z,43.30
2023-04-09T01:04:13.641Z,43.55
2023-04-09T01:06:59.458Z,43.15
2023-04-09T01:09:34.163Z,40.97
2023-04-09T01:12:15.052Z,42.40
2023-04-09T01:15:03.281Z,41.67
2023-04-09T01:18:07.547Z,41.47
2023-04-09T01:20:43.418Z,42.35
2023-04-09T01:23:50.598Z,41.08
2023-04-09T01:27:04.249Z,41.03
2023-04-09T01:30:04.674Z,41.10
2023-04-09T01:32:35.407Z,41.80
2023-04-09T01:35:04.676Z,41.17
2023-04-09T01:37:32.653Z,41.03
2023-04-09T01:39:59.777Z,40.45
2023-04-09T01:42:27.705Z,40.17
2023-04-09T01:44:55.251Z,40.85
2023-04-09T01:47:23.420Z,42.30
2023-04-09T01:49:51.765Z,42.33
2023-04-09T01:52:18.917Z,41.47
2023-04-09T01:54:46.613Z,41.35
2023-04-09T01:57:13.630Z,41.42
2023-04-09T01:59:40.764Z,42.05
2023-04-09T02:02:19.131Z,42.50
2023-04-09T02:04:54.238Z,43.67
2023-04-09T02:07:40.716Z,41.90
2023-04-09T02:12:42.964Z,41.60
2023-04-09T02:15:12.773Z,42.78
2023-04-09T02:17:39.961Z,40.47
2023-04-09T02:20:08.275Z,42.28
2023-04-09T02:22:35.434Z,41.75
2023-04-09T02:25:02.424Z,41.88
2023-04-09T02:27:29.589Z,41.97
2023-04-09T02:29:56.624Z,42.38
2023-04-09T02:32:23.692Z,41.53
2023-04-09T02:34:50.692Z,40.75
2023-04-09T02:37:18.412Z,41.35
2023-04-09T02:39:46.838Z,41.47
2023-04-09T02:42:14.068Z,42.35
2023-04-09T02:44:41.228Z,42.58
2023-04-09T02:47:08.394Z,43.08
2023-04-09T02:49:37.484Z,41.72
2023-04-09T02:52:04.704Z,43.40
2023-04-09T02:54:31.896Z,42.22
2023-04-09T02:57:01.989Z,41.45
2023-04-09T02:59:29.115Z,41.17
2023-04-09T03:01:56.465Z,42.40
2023-04-09T03:04:23.672Z,41.17
2023-04-09T03:06:51.616Z,41.38
2023-04-09T03:09:19.020Z,42.45
2023-04-09T03:11:45.986Z,42.35
2023-04-09T03:14:13.093Z,40.25
2023-04-09T03:16:40.318Z,40.58
2023-04-09T03:19:07.378Z,42.00
2023-04-09T03:21:37.390Z,42.25
2023-04-09T03:24:05.918Z,41.63
2023-04-09T03:26:36.482Z,42.58
2023-04-09T03:29:06.514Z,42.53
2023-04-09T03:31:33.920Z,41.33
2023-04-09T03:34:00.956Z,41.45
2023-04-09T03:36:29.050Z,40.92
2023-04-09T03:39:02.485Z,40.60
2023-04-09T03:41:38.465Z,41.75
2023-04-09T03:44:12.107Z,40.75
2023-04-09T03:46:57.860Z,41.10
2023-04-09T03:49:25.980Z,39.20
2023-04-09T03:51:55.787Z,39.92
2023-04-09T03:54:30.043Z,39.03
2023-04-09T03:56:58.337Z,40.53
2023-04-09T03:59:26.211Z,39.78
2023-04-09T04:01:53.351Z,39.50
2023-04-09T04:04:23.379Z,39.50
2023-04-09T04:06:55.392Z,38.50
2023-04-09T04:09:29.372Z,39.13
2023-04-09T04:12:07.438Z,38.42
2023-04-09T04:14:52.956Z,40.23
2023-04-09T04:17:30.748Z,37.70
2023-04-09T04:19:58.646Z,39.83
2023-04-09T04:22:26.315Z,36.80
2023-04-09T04:24:56.224Z,36.05
2023-04-09T04:27:23.904Z,36.72
2023-04-09T04:29:52.462Z,36.97
2023-04-09T04:32:35.735Z,39.47
2023-04-09T04:35:07.419Z,36.20
2023-04-09T04:37:35.321Z,36.15
2023-04-09T04:40:03.932Z,37.50
2023-04-09T04:42:34.363Z,36.97
2023-04-09T04:45:09.068Z,35.03
2023-04-09T04:47:43.227Z,36.40
2023-04-09T04:50:15.092Z,37.15
2023-04-09T04:52:55.244Z,35.13
2023-04-09T04:55:26.077Z,36.30
2023-04-09T04:57:53.157Z,35.55
2023-04-09T05:00:23.948Z,34.38
2023-04-09T05:02:51.523Z,33.75
2023-04-09T05:05:25.455Z,34.97
2023-04-09T05:07:55.276Z,35.13
2023-04-09T05:10:22.960Z,35.03
2023-04-09T05:12:50.230Z,34.83
2023-04-09T05:15:27.947Z,33.53
2023-04-09T05:17:54.989Z,35.33
2023-04-09T05:20:22.482Z,34.42
2023-04-09T05:23:00.478Z,35.22
2023-04-09T05:25:32.370Z,34.45
2023-04-09T05:28:01.308Z,35.25
2023-04-09T05:30:30.358Z,36.53
2023-04-09T05:33:01.658Z,34.20
2023-04-09T05:35:30.439Z,34.10
2023-04-09T05:37:57.941Z,33.67
2023-04-09T05:40:24.979Z,32.95
2023-04-09T05:42:53.292Z,33.95
2023-04-09T05:45:32.930Z,33.40
2023-04-09T05:47:59.963Z,33.38
2023-04-09T05:50:27.177Z,33.33
2023-04-09T05:52:55.880Z,32.85
2023-04-09T05:55:31.488Z,34.92
2023-04-09T05:58:00.742Z,33.55
2023-04-09T06:00:28.866Z,33.35
2023-04-09T06:02:56.310Z,34.25
2023-04-09T06:05:23.420Z,34.08
2023-04-09T06:07:50.648Z,33.47
2023-04-09T06:10:17.853Z,33.80
2023-04-09T06:12:47.124Z,34.38
2023-04-09T06:15:15.090Z,33.53
2023-04-09T06:17:42.132Z,34.90
2023-04-09T06:20:09.976Z,34.67
2023-04-09T06:22:37.556Z,34.42
2023-04-09T06:25:05.024Z,34.58
2023-04-09T06:27:32.142Z,34.17
2023-04-09T06:29:59.221Z,34.13
2023-04-09T06:32:26.444Z,33.83
2023-04-09T06:34:53.427Z,34.63
2023-04-09T06:37:20.472Z,34.28
2023-04-09T06:40:00.024Z,34.15
2023-04-09T06:42:28.398Z,34.60
2023-04-09T06:44:59.476Z,34.05
2023-04-09T06:47:26.561Z,33.75
2023-04-09T06:49:53.558Z,34.15
2023-04-09T06:52:20.577Z,34.85
2023-04-09T06:54:47.659Z,34.35
2023-04-09T06:57:14.610Z,35.42
2023-04-09T06:59:41.566Z,35.42
2023-04-09T07:02:09.610Z,34.78
2023-04-09T07:04:36.921Z,36.08
2023-04-09T07:07:03.985Z,36.85
2023-04-09T07:09:31.571Z,36.47
2023-04-09T07:11:58.692Z,37.15
2023-04-09T07:14:25.802Z,36.00
2023-04-09T07:16:52.845Z,37.47
2023-04-09T07:19:19.831Z,38.08
2023-04-09T07:21:46.806Z,37.47
2023-04-09T07:24:13.772Z,37.58
2023-04-09T07:26:41.487Z,37.03
2023-04-09T07:29:08.527Z,35.95
2023-04-09T07:31:36.193Z,36.45
2023-04-09T07:34:03.501Z,36.28
2023-04-09T07:36:31.835Z,36.58
2023-04-09T07:38:58.931Z,35.00
2023-04-09T07:41:26.252Z,35.33
2023-04-09T07:43:53.251Z,35.53
2023-04-09T07:46:24.447Z,36.40
2023-04-09T07:48:52.006Z,37.40
2023-04-09T07:51:19.424Z,36.47
2023-04-09T07:53:46.564Z,37.28
2023-04-09T07:56:13.763Z,37.10
2023-04-09T07:58:40.951Z,36.88
2023-04-09T08:01:08.735Z,36.13
2023-04-09T08:03:36.867Z,35.60
2023-04-09T08:06:04.561Z,37.22
2023-04-09T08:08:31.668Z,36.67
2023-04-09T08:10:58.659Z,36.45
2023-04-09T08:13:25.902Z,35.88
2023-04-09T08:15:52.995Z,37.97
2023-04-09T08:18:20.124Z,36.95
2023-04-09T08:20:47.107Z,36.22
2023-04-09T08:23:14.097Z,37.38
2023-04-09T08:25:41.272Z,36.10
2023-04-09T08:28:08.516Z,36.25
2023-04-09T08:30:35.578Z,36.95
2023-04-09T08:33:02.846Z,36.92
2023-04-09T08:35:33.421Z,37.13
2023-04-09T08:38:00.509Z,35.05
2023-04-09T08:40:27.603Z,36.95
2023-04-09T08:42:59.309Z,36.13
2023-04-09T08:45:26.502Z,34.22
2023-04-09T08:47:53.670Z,33.92
2023-04-09T08:50:20.968Z,33.47
2023-04-09T08:52:48.686Z,33.55
2023-04-09T08:55:15.895Z,33.10
2023-04-09T08:57:43.228Z,32.80
2023-04-09T09:00:11.294Z,33.33
2023-04-09T09:02:39.449Z,33.67
2023-04-09T09:05:07.326Z,33.97
2023-04-09T09:07:34.462Z,30.08
2023-04-09T09:10:04.505Z,29.85
2023-04-09T09:12:35.603Z,31.80
2023-04-09T09:15:03.824Z,29.70
2023-04-09T09:17:31.208Z,30.55
2023-04-09T09:19:59.090Z,30.50
2023-04-09T09:22:26.280Z,30.80
2023-04-09T09:24:53.714Z,30.70
2023-04-09T09:27:40.386Z,31.58
2023-04-09T09:30:08.637Z,30.30
2023-04-09T09:32:36.219Z,31.38
2023-04-09T09:35:06.288Z,31.48
2023-04-09T09:37:34.248Z,29.63
2023-04-09T09:40:01.856Z,29.40
2023-04-09T09:42:28.849Z,29.23
2023-04-09T09:44:56.478Z,29.67
2023-04-09T09:47:25.317Z,30.63
2023-04-09T09:49:52.633Z,29.70
2023-04-09T09:52:28.581Z,30.17
2023-04-09T09:54:58.846Z,30.77
2023-04-09T09:57:29.666Z,31.55
2023-04-09T10:00:02.453Z,30.92
2023-04-09T10:02:45.097Z,30.02
2023-04-09T10:05:12.412Z,28.45
2023-04-09T10:07:41.023Z,28.70
2023-04-09T10:10:09.258Z,29.90
2023-04-09T10:12:36.489Z,31.23
2023-04-09T10:15:06.163Z,29.63
2023-04-09T10:17:33.349Z,30.08
2023-04-09T10:20:27.461Z,28.98
2023-04-09T10:22:55.344Z,27.17
2023-04-09T10:25:22.546Z,27.60
2023-04-09T10:28:01.485Z,27.33
2023-04-09T10:30:33.115Z,27.73
2023-04-09T10:33:17.525Z,28.92
2023-04-09T10:35:47.955Z,26.52
2023-04-09T10:38:15.584Z,27.10
2023-04-09T10:40:51.941Z,26.70
2023-04-09T10:43:21.113Z,25.92
2023-04-09T10:45:53.311Z,24.67
2023-04-09T10:48:21.970Z,23.52
2023-04-09T10:50:52.323Z,25.65
2023-04-09T10:53:24.782Z,24.50
2023-04-09T10:55:53.917Z,25.40
2023-04-09T10:58:21.385Z,24.45
2023-04-09T11:00:50.872Z,23.30
2023-04-09T11:03:27.095Z,23.65
2023-04-09T11:06:09.310Z,24.90
2023-04-09T11:08:41.614Z,25.15
2023-04-09T11:11:08.733Z,24.52
2023-04-09T11:13:36.031Z,23.13
2023-04-09T11:16:07.120Z,22.92
2023-04-09T11:18:36.905Z,23.30
2023-04-09T11:21:07.859Z,22.38
2023-04-09T11:23:35.849Z,21.65
2023-04-09T11:26:03.057Z,23.30
2023-04-09T11:28:30.039Z,22.58
2023-04-09T11:30:57.104Z,22.73
2023-04-09T11:33:33.320Z,23.92
2023-04-09T11:36:00.436Z,21.83
2023-04-09T11:38:27.472Z,22.42
2023-04-09T11:40:57.964Z,21.42
2023-04-09T11:43:25.362Z,21.42
2023-04-09T11:46:00.265Z,21.50
2023-04-09T11:48:27.400Z,20.88
2023-04-09T11:50:54.728Z,20.17
2023-04-09T11:53:23.707Z,20.38
2023-04-09T11:55:52.608Z,21.30
2023-04-09T11:58:24.439Z,19.75
2023-04-09T12:00:58.484Z,20.17
2023-04-09T12:03:33.311Z,20.42
2023-04-09T12:06:03.374Z,19.75
2023-04-09T12:08:31.359Z,19.95
2023-04-09T12:11:12.711Z,21.20
2023-04-09T12:13:43.243Z,20.40
2023-04-09T12:16:12.373Z,21.08
2023-04-09T12:18:40.196Z,21.10
2023-04-09T12:21:07.211Z,20.08
2023-04-09T12:23:35.005Z,20.77
2023-04-09T12:26:02.545Z,21.35
2023-04-09T12:28:29.870Z,22.52
2023-04-09T12:30:59.324Z,21.02
2023-04-09T12:33:26.452Z,21.50
2023-04-09T12:35:53.558Z,22.33
2023-04-09T12:38:20.944Z,21.85
2023-04-09T12:40:48.063Z,21.90
2023-04-09T12:43:15.650Z,21.52
2023-04-09T12:45:42.894Z,21.30
2023-04-09T12:48:10.135Z,20.42
2023-04-09T12:50:37.342Z,20.50
2023-04-09T12:53:04.434Z,19.95
2023-04-09T12:55:31.621Z,19.67
2023-04-09T12:57:58.625Z,19.27
2023-04-09T13:00:25.861Z,19.83
2023-04-09T13:02:53.166Z,21.30
2023-04-09T13:05:20.443Z,22.08
2023-04-09T13:07:47.617Z,21.33
2023-04-09T13:10:14.726Z,21.30
2023-04-09T13:12:41.984Z,20.85
2023-04-09T13:15:09.526Z,21.42
2023-04-09T13:17:36.613Z,19.48
2023-04-09T13:20:03.868Z,18.42
2023-04-09T13:22:31.196Z,18.13
2023-04-09T13:24:58.183Z,19.23
2023-04-09T13:27:25.446Z,20.33
2023-04-09T13:29:52.532Z,21.15
2023-04-09T13:32:22.227Z,21.02
2023-04-09T13:34:49.428Z,20.45
2023-04-09T13:37:17.304Z,19.42
2023-04-09T13:39:44.878Z,19.50
2023-04-09T13:42:14.015Z,18.45
2023-04-09T13:44:44.587Z,18.77
2023-04-09T13:47:14.295Z,18.23
2023-04-09T13:49:42.124Z,18.13
2023-04-09T13:52:10.714Z,18.15
2023-04-09T13:54:38.175Z,17.95
2023-04-09T13:57:05.258Z,18.02
2023-04-09T13:59:32.410Z,18.20
2023-04-09T14:01:59.446Z,19.02
2023-04-09T14:04:26.714Z,18.55
2023-04-09T14:06:53.919Z,19.55
2023-04-09T14:09:21.094Z,19.70
2023-04-09T14:11:48.268Z,18.20
2023-04-09T14:14:15.644Z,17.58
2023-04-09T14:16:42.700Z,17.70
2023-04-09T14:19:10.406Z,17.00
2023-04-09T14:21:37.571Z,16.48
2023-04-09T14:24:04.790Z,14.20
2023-04-09T14:26:31.921Z,13.07
2023-04-09T14:28:59.032Z,13.48
2023-04-09T14:31:26.348Z,13.23
2023-04-09T14:33:53.525Z,13.20
2023-04-09T14:36:20.659Z,13.15
2023-04-09T14:38:49.119Z,12.82
2023-04-09T14:41:17.364Z,12.77
2023-04-09T14:43:44.610Z,12.38
2023-04-09T14:46:12.170Z,12.20
2023-04-09T14:48:40.053Z,12.68
2023-04-09T14:51:10.815Z,12.82
2023-04-09T14:53:38.480Z,12.25
2023-04-09T14:56:06.626Z,11.90
2023-04-09T14:58:33.801Z,12.32
2023-04-09T15:01:01.124Z,11.85
2023-04-09T15:03:28.473Z,12.35
2023-04-09T15:05:55.851Z,12.02
2023-04-09T15:08:23.654Z,11.98
2023-04-09T15:10:51.177Z,11.55
2023-04-09T15:13:18.375Z,12.02
2023-04-09T15:15:45.722Z,12.55
2023-04-09T15:18:12.803Z,12.05
2023-04-09T15:20:41.564Z,12.95
2023-04-09T15:23:08.973Z,12.05
2023-04-09T15:25:36.362Z,12.43
2023-04-09T15:28:04.615Z,12.10
2023-04-09T15:30:32.504Z,12.00
2023-04-09T15:32:59.579Z,12.27
2023-04-09T15:35:29.382Z,12.27
2023-04-09T15:37:57.321Z,11.15
2023-04-09T15:40:24.426Z,13.10
2023-04-09T15:42:51.659Z,12.93
2023-04-09T15:45:18.807Z,12.18
2023-04-09T15:47:46.471Z,13.23
2023-04-09T15:50:14.531Z,12.55
2023-04-09T15:52:41.588Z,12.50
2023-04-09T15:55:09.430Z,12.40
2023-04-09T15:57:36.615Z,11.98
2023-04-09T16:00:04.189Z,12.23
2023-04-09T16:02:32.177Z,13.02
2023-04-09T16:04:59.201Z,13.50
2023-04-09T16:07:26.761Z,12.73
2023-04-09T16:09:53.833Z,13.23
2023-04-09T16:12:21.270Z,13.88
2023-04-09T16:14:48.331Z,14.55
2023-04-09T16:17:15.434Z,14.25
2023-04-09T16:19:43.200Z,13.88
2023-04-09T16:22:10.575Z,14.68
2023-04-09T16:24:37.898Z,13.43
2023-04-09T16:27:04.962Z,13.75
2023-04-09T16:29:32.094Z,13.40
2023-04-09T16:31:59.121Z,13.70
2023-04-09T16:34:26.240Z,14.07
2023-04-09T16:36:53.280Z,13.43
2023-04-09T16:39:20.386Z,13.52
2023-04-09T16:41:47.421Z,14.10
2023-04-09T16:44:14.516Z,13.20
2023-04-09T16:46:42.831Z,12.32
2023-04-09T16:49:10.078Z,13.13
2023-04-09T16:51:38.061Z,12.52
2023-04-09T16:54:05.289Z,13.68
2023-04-09T16:56:32.383Z,12.77
2023-04-09T16:58:59.431Z,13.18
2023-04-09T17:01:27.700Z,13.38
2023-04-09T17:03:55.992Z,12.57
2023-04-09T17:06:23.091Z,13.82
2023-04-09T17:08:50.164Z,12.93
2023-04-09T17:11:17.870Z,12.95
2023-04-09T17:13:45.138Z,13.23
2023-04-09T17:16:12.752Z,13.23
2023-04-09T17:18:39.714Z,12.40
2023-04-09T17:21:07.028Z,12.30
2023-04-09T17:23:34.081Z,12.82
2023-04-09T17:26:02.256Z,13.02
2023-04-09T17:28:29.460Z,12.43
2023-04-09T17:30:56.571Z,12.93
2023-04-09T17:33:23.826Z,13.13
2023-04-09T17:35:50.867Z,12.25
2023-04-09T17:38:21.175Z,12.85
2023-04-09T17:40:48.431Z,12.90
2023-04-09T17:43:15.641Z,13.23
2023-04-09T17:45:43.200Z,13.45
2023-04-09T17:48:10.805Z,13.65
2023-04-09T17:50:39.027Z,13.73
2023-04-09T17:53:06.151Z,13.32
2023-04-09T17:55:33.372Z,13.60
2023-04-09T17:58:00.482Z,13.10
2023-04-09T18:00:27.648Z,13.25
2023-04-09T18:02:54.925Z,13.48
2023-04-09T18:05:23.559Z,13.73
2023-04-09T18:07:51.657Z,16.10
2023-04-09T18:10:19.696Z,16.27
2023-04-09T18:12:46.801Z,19.58
2023-04-09T18:15:13.898Z,20.98
2023-04-09T18:17:41.069Z,20.23
2023-04-09T18:20:08.973Z,20.15
2023-04-09T18:22:36.192Z,18.98
2023-04-09T18:25:04.167Z,19.60
2023-04-09T18:27:31.478Z,18.60
2023-04-09T18:29:59.263Z,18.23
2023-04-09T18:32:26.786Z,17.88
2023-04-09T18:34:53.913Z,17.63
2023-04-09T18:37:21.430Z,16.92
2023-04-09T18:39:48.486Z,17.55
2023-04-09T18:42:15.580Z,16.20
2023-04-09T18:44:42.648Z,15.95
2023-04-09T18:47:11.329Z,15.85
2023-04-09T18:49:38.515Z,16.38
2023-04-09T18:52:06.107Z,16.42
2023-04-09T18:54:37.111Z,15.88
2023-04-09T18:57:04.277Z,16.92
2023-04-09T18:59:35.329Z,17.02
2023-04-09T19:02:05.109Z,16.95
2023-04-09T19:04:39.380Z,15.75
2023-04-09T19:07:07.080Z,16.15
2023-04-09T19:09:34.516Z,15.77
2023-04-09T19:12:01.818Z,15.20
2023-04-09T19:14:29.151Z,16.77
2023-04-09T19:16:57.128Z,21.33
2023-04-09T19:19:24.145Z,22.40
2023-04-09T19:21:51.263Z,23.88
2023-04-09T19:24:18.478Z,29.38
2023-04-09T19:26:45.626Z,41.63
2023-04-09T19:29:12.712Z,41.65
2023-04-09T19:31:41.391Z,46.85
2023-04-09T19:34:10.755Z,44.22
2023-04-09T19:36:37.915Z,42.30
2023-04-09T19:39:05.966Z,37.83
2023-04-09T19:41:33.131Z,35.13
2023-04-09T19:44:01.360Z,34.60
2023-04-09T19:46:28.601Z,35.05
2023-04-09T19:48:56.703Z,39.63
2023-04-09T19:51:23.951Z,40.47
2023-04-09T19:53:51.066Z,41.97
2023-04-09T19:56:18.907Z,41.65
2023-04-09T19:58:45.942Z,42.17
2023-04-09T20:01:13.106Z,42.20
2023-04-09T20:03:40.772Z,43.30
2023-04-09T20:06:09.916Z,44.50
2023-04-09T20:08:40.973Z,49.42
2023-04-09T20:11:08.174Z,58.97
2023-04-09T20:13:35.238Z,64.43
2023-04-09T20:16:02.460Z,71.13
2023-04-09T20:18:29.555Z,82.85
2023-04-09T20:20:56.594Z,77.88
2023-04-09T20:23:23.632Z,73.47
2023-04-09T20:25:55.265Z,75.55
2023-04-09T20:28:23.018Z,75.85
2023-04-09T20:30:50.562Z,74.55
2023-04-09T20:33:20.787Z,73.35
2023-04-09T20:35:48.276Z,72.55
2023-04-09T20:38:15.533Z,73.32
2023-04-09T20:40:42.600Z,71.45
2023-04-09T20:43:09.644Z,69.68
2023-04-09T20:45:36.715Z,71.97
2023-04-09T20:48:03.957Z,69.05
2023-04-09T20:50:31.140Z,69.05
2023-04-09T20:52:59.180Z,64.57
2023-04-09T20:55:26.480Z,63.08
2023-04-09T20:57:58.428Z,62.15
2023-04-09T21:00:25.619Z,63.72
2023-04-09T21:02:52.950Z,62.70
2023-04-09T21:05:23.999Z,58.88
2023-04-09T21:07:52.863Z,54.90
2023-04-09T21:10:20.478Z,53.30
2023-04-09T21:12:47.683Z,50.80
2023-04-09T21:15:14.895Z,48.20
2023-04-09T21:17:41.899Z,45.70
2023-04-09T21:20:09.715Z,43.30
2023-04-09T21:22:36.841Z,45.13
2023-04-09T21:25:04.375Z,45.53
2023-04-09T21:27:31.493Z,48.03
2023-04-09T21:29:58.879Z,50.35
2023-04-09T21:32:26.067Z,53.83
2023-04-09T21:34:53.380Z,52.97
2023-04-09T21:37:20.374Z,52.88
2023-04-09T21:39:48.739Z,53.58
2023-04-09T21:42:16.048Z,53.17
2023-04-09T21:44:43.034Z,51.67
2023-04-09T21:47:12.063Z,51.80
2023-04-09T21:49:40.048Z,53.65
2023-04-09T21:52:14.190Z,50.30
2023-04-09T21:54:45.473Z,52.47
2023-04-09T21:57:12.629Z,51.50
2023-04-09T21:59:41.313Z,52.90
2023-04-09T22:02:09.529Z,49.63
2023-04-09T22:04:36.945Z,50.25
2023-04-09T22:07:04.326Z,50.95
2023-04-09T22:09:31.551Z,50.92
2023-04-09T22:11:59.650Z,50.28
2023-04-09T22:14:29.500Z,48.92
2023-04-09T22:16:58.404Z,49.40
2023-04-09T22:19:26.586Z,47.45
2023-04-09T22:21:54.428Z,47.13
2023-04-09T22:24:27.032Z,48.00
2023-04-09T22:26:54.273Z,46.20
2023-04-09T22:29:21.411Z,46.40
2023-04-09T22:31:48.367Z,44.95
2023-04-09T22:34:21.348Z,45.05
2023-04-09T22:36:49.420Z,43.20
2023-04-09T22:39:16.998Z,43.88
2023-04-09T22:41:44.258Z,42.33
2023-04-09T22:44:11.294Z,43.42
2023-04-09T22:46:38.306Z,42.03
2023-04-09T22:49:06.338Z,42.95
2023-04-09T22:51:36.693Z,42.33
2023-04-09T22:54:03.828Z,42.58
2023-04-09T22:56:32.099Z,41.90
2023-04-09T22:58:59.360Z,41.65
2023-04-09T23:01:27.256Z,42.13
2023-04-09T23:03:54.629Z,41.97
2023-04-09T23:06:22.652Z,40.85
2023-04-09T23:08:50.544Z,42.70
2023-04-09T23:11:17.648Z,42.13
2023-04-09T23:13:44.735Z,42.83
2023-04-09T23:16:11.990Z,43.70
2023-04-09T23:18:39.404Z,43.00
2023-04-09T23:21:08.086Z,42.97
2023-04-09T23:23:36.218Z,43.45
2023-04-09T23:26:04.169Z,44.45
2023-04-09T23:28:32.033Z,44.47
2023-04-09T23:30:59.357Z,45.75
2023-04-09T23:33:26.789Z,45.95
2023-04-09T23:35:54.032Z,46.15
2023-04-09T23:38:21.117Z,44.95
2023-04-09T23:40:49.195Z,44.38
2023-04-09T23:43:17.370Z,45.10
2023-04-09T23:45:44.577Z,45.65
2023-04-09T23:48:12.609Z,46.95
2023-04-09T23:50:41.404Z,45.80
2023-04-09T23:53:08.578Z,46.65
2023-04-09T23:55:40.675Z,46.53
2023-04-09T23:58:08.321Z,46.65
